KMLJ/MLJ METAR and TAF weather

Enter ICAO airport designator
Station Type Date Time Source
KMLJ METAR 2019/08/23 15:15 UTC NOAA

KMLJ 231515Z AUTO 01004KT 10SM CLR 32/22 A3006 RMK AO2


Station Type Date Time Source
KMLJ Decoded METAR 2019/08/23 15:15 UTC NOAA

Station name not available
Aug 23, 2019 - 11:15 AM EDT / 2019.08.23 1515 UTC
Wind: from the N (010 degrees) at 5 MPH (4 KT):0
Visibility: 10 mile(s):0
Sky conditions: clear
Temperature: 89 F (32 C)
Heat index: 95.0 F (35.0 C):1
Dew Point: 71 F (22 C)
Relative Humidity: 55%
Pressure (altimeter): 30.06 in. Hg (1017 hPa)
ob: KMLJ 231515Z AUTO 01004KT 10SM CLR 32/22 A3006 RMK AO2
cycle: 15

Station Type Date Time Source
KMLJ TAF UTC NOAA

Error!

Example: see airport list